Vytegra, Russia
Current Conditions -  °F | °C
As of 9:00 PM on Thursday 30 Oct 2014 (Local Time) from ULPB Reporting Station
NA  
Wind Chill: 31°   Ceiling: NA
Heat Index: 37°   Visibility: 6mi
Dew Point: 34°   Wind: 9mph
Humidity: 87%   Direction: 240°WSW
Pressure: 29.85"   Gusts: NA
Location:  61°N, 36.4°E
Report Text: ULPB 301800Z AUTO 24004MPS 9999 ////// 03/01 Q1011
Loading
Personal Weather Stations






























Interactive Weather Map
Tropical Storm Tracking
New forecast layout! Learn more

10-Day Weather Forecast

Advertisements
Track Severe Weather on mobile